Cedar Key, FL (32625)

6:45 AM EST on February 06, 2016 (GMT -0500)
Waccasassa Bay Preserve State Park Headquarters | | Change Station
CLOSE
Current Station
Personal Weather Station
Location: Cedar Key, FL
Elevation: 43 ft
Nearby Weather Stations

Elev 43 ft 29.21 °N, 82.98 °W | Updated 48 seconds ago

Mostly Cloudy
Mostly Cloudy
45.5 °F
Feels Like 46 °F
N
3.0
Wind Variable Wind from NNE
Gusts 3.0 mph

Today
High -- | Low -- °F
--% Chance of Precip.
Yesterday
High -- | Low -- °F
Precip. -- in
Pressure 30.22 in
Visibility 10.0 miles
Clouds Mostly Cloudy 6000 ft
Windchill 46 °F
Dew Point 38 °F
Humidity 75%
Rainfall 0.00 in
Snow Depth Not available.
7:18 AM 6:14 PM
Waning Crescent, 6% visible
METAR KCGC 061135Z AUTO 04007KT 10SM BKN060 08/03 A3022 RMK AO2
Pressure 30.22 in
Visibility 10.0 miles
Clouds Mostly Cloudy 6000 ft
Windchill 46 °F
Dew Point 38 °F
Humidity 75%
Rainfall 0.00 in
Snow Depth Not available.
7:18 AM 6:14 PM
Waning Crescent, 6% visible
METAR KCGC 061135Z AUTO 04007KT 10SM BKN060 08/03 A3022 RMK AO2

10-Day Weather Forecast

Almanac

Astronomy

Feb. 06, 2016 Rise Set
Actual Time
Civil Twilight
Nautical Twilight
Astronomical Twilight
Moon
Length of Visible Light
Length of Day
Tomorrow will be .
, % of the Moon is Illuminated

Today's Extremes

State Highs State Lows

Community

WunderPhotos

Upload Photos

1,890,944 photos uploaded!

WunderBlog® & News

Nearby

Air Quality

  Air Quality AQ Index Pollutant
Not available.

Snow Depth

Station Depth Elevation

Earthquake Activity

City Distance Mag. Time & Date
Minimum magnitude displayed is 2.5.

Coastal Water Temperatures

Place Temperature

Stations

Nearby Weather Stations

Station Location Temp. Windchill Dew Point Humidity Wind Precip. Elev Updated Type
                   

Watches & Warnings

There are currently no watches in effect.